Kalama, Washington
Current Conditions -  °F | °C
As of 1:35 PM on Saturday 20 Dec 2014 (Local Time) from KKLS Reporting Station
Overcast Overcast  
Wind Chill: 52°   Ceiling: 4800
Heat Index: 52°   Visibility: 10mi
Dew Point: 46°   Wind: 17mph
Humidity: 82%   Direction: 150°SSE
Pressure: 29.62"   Gusts: 29mph
Location:  46.01°N, 122.84°W
Report Text: KKLS 202135Z 15015G25KT 10SM FEW032 OVC048 11/08 A2962 RMK AO1 P0001
Loading
Personal Weather Stations






























Interactive Weather Map New forecast layout! Learn more

10-Day Weather Forecast

Advertisements
Track Severe Weather on mobile